CNO weather

Chino Airport
Chino, California, United States

Public forecast

Using degrees Fahrenheit for public forecast. Weather courtesy of forecast.io.

METAR (pilot weather report)

Retrieved 2019/06/19 15:53 UTC (1 hour ago):

KCNO 191553Z 23003KT 2 1/2SM BR OVC012 18/16 A3001 RMK AO2 SLP159 T01780156

TAF (pilot weather forecast)

Closest forecast is Ontario International Airport, 5.2 nm (9.6 km) NNE. Retrieved 2019/06/19 12:22 UTC (5 hours ago):

TAF KONT 191120Z 1912/2018 VRB04KT 6SM BR FEW012 TEMPO 1912/1915 5SM HZ BKN010 FM192000 26012KT P6SM FEW100 FM200600 26005KT P6SM SCT015 FM200800 VRB04KT P6SM OVC010 FM201700 VRB03KT 5SM HZ SCT012